PWSweather.com
Personal Weather Stations
Station Observations
LENIOP
Colle Di Val D ElsaIT 53034

Colle Di Val D ElsaIT 53034

Lat: 43.26, Lon: 11.0006

Elevation: 244

Station Type: PCE-FWS 20

http://iz5ilj.altervista.org

Latest ConditionsUpdated 7:15:02 PM GMT+01:01 Monday, Sep 24, 2018
Currently Today's Max Today's Min Today's Average
Temperature 67.5°F19.7°C 87.8°F31.0°C 65.5°F18.6°C 72.3°F22.4°C
Dew Point 45.4°F7.4°C 68.2°F20.1°C 44.7°F7.1°C 62.6°F17.0°C
Winds 6.0 mph NNE9.7 kmh NNE 21.2 mph -34.1 kmh - - 4.8 mph 7.7 kmh
Wind Gusts 9.8 mph15.8 kmh 25.1 mph40.4 kmh - -
Humidity 45% 95% 37% 75%
Pressure 30.21 in1023.0 mb 30.21 in1023.0 mb 30.00 in1015.9 mb -
Hour Temp Dew Point Humidity Winds Wind Gusts Pressure Precip Precip Rate Daily Precip Total
07:15 PM 67.5°F19.7°C 45.4°F7.4°C 45% 6.0 mph NNE9.7 kmh NNE 9.8 mph15.8 kmh 30.21 in1023.0 mb 0.00 in0.0 mm 0.00 in0.0 mm 0.00 in0.0 mm
07:00 PM 68.0°F20.0°C 45.3°F7.4°C 44% 9.9 mph NNE15.9 kmh NNE 13.6 mph21.9 kmh 30.20 in1022.7 mb 0.00 in0.0 mm 0.00 in0.0 mm 0.00 in0.0 mm
06:45 PM 68.7°F20.4°C 45.3°F7.4°C 43% 8.5 mph NE13.7 kmh NE 10.7 mph17.2 kmh 30.19 in1022.4 mb 0.00 in0.0 mm 0.00 in0.0 mm 0.00 in0.0 mm
06:30 PM 69.4°F20.8°C 44.7°F7.1°C 41% 9.4 mph NNE15.1 kmh NNE 14.5 mph23.3 kmh 30.18 in1022.0 mb 0.00 in0.0 mm 0.00 in0.0 mm 0.00 in0.0 mm
06:15 PM 70.0°F21.1°C 45.2°F7.3°C 41% 7.7 mph NNE12.4 kmh NNE 9.8 mph15.8 kmh 30.18 in1022.0 mb 0.00 in0.0 mm 0.00 in0.0 mm 0.00 in0.0 mm
06:00 PM 70.9°F21.6°C 45.4°F7.4°C 40% 6.1 mph NNE9.8 kmh NNE 9.2 mph14.8 kmh 30.17 in1021.7 mb 0.00 in0.0 mm 0.00 in0.0 mm 0.00 in0.0 mm
05:45 PM 71.6°F22.0°C 45.4°F7.4°C 39% 6.7 mph N10.8 kmh N 9.8 mph15.8 kmh 30.16 in1021.3 mb 0.00 in0.0 mm 0.00 in0.0 mm 0.00 in0.0 mm
05:30 PM 73.0°F22.8°C 47.3°F8.5°C 40% 5.7 mph N9.2 kmh N 9.8 mph15.8 kmh 30.15 in1021.0 mb 0.00 in0.0 mm 0.00 in0.0 mm 0.00 in0.0 mm
05:15 PM 74.1°F23.4°C 49.6°F9.8°C 42% 6.7 mph NNW10.8 kmh NNW 7.6 mph12.2 kmh 30.14 in1020.7 mb 0.00 in0.0 mm 0.00 in0.0 mm 0.00 in0.0 mm
05:00 PM 74.8°F23.8°C 50.2°F10.1°C 42% 5.6 mph N9.0 kmh N 9.2 mph14.8 kmh 30.13 in1020.3 mb 0.00 in0.0 mm 0.00 in0.0 mm 0.00 in0.0 mm
04:45 PM 77.0°F25.0°C 52.2°F11.2°C 42% 5.7 mph N9.2 kmh N 9.2 mph14.8 kmh 30.13 in1020.3 mb 0.00 in0.0 mm 0.00 in0.0 mm 0.00 in0.0 mm
04:30 PM 77.0°F25.0°C 57.0°F13.9°C 50% 6.0 mph N9.7 kmh N 8.3 mph13.4 kmh 30.13 in1020.3 mb 0.00 in0.0 mm 0.00 in0.0 mm 0.00 in0.0 mm
04:15 PM 79.3°F26.3°C 58.0°F14.4°C 48% 6.2 mph N10.0 kmh N 9.2 mph14.8 kmh 30.11 in1019.6 mb 0.00 in0.0 mm 0.00 in0.0 mm 0.00 in0.0 mm
04:08 PM 79.7°F26.5°C 55.9°F13.3°C 44% 4.3 mph N6.9 kmh N 6.8 mph10.9 kmh 30.11 in1019.6 mb 0.00 in0.0 mm 0.00 in0.0 mm 0.00 in0.0 mm
04:04 PM 77.5°F25.3°C 56.3°F13.5°C 48% 5.3 mph N8.5 kmh N 6.8 mph10.9 kmh 30.11 in1019.6 mb 0.00 in0.0 mm 0.00 in0.0 mm 0.00 in0.0 mm
03:59 PM 76.8°F24.9°C 57.9°F14.4°C 52% 5.6 mph N9.0 kmh N 6.9 mph11.1 kmh 30.11 in1019.6 mb 0.00 in0.0 mm 0.00 in0.0 mm 0.00 in0.0 mm
03:54 PM 76.8°F24.9°C 58.4°F14.7°C 53% 5.8 mph N9.3 kmh N 7.6 mph12.2 kmh 30.11 in1019.6 mb 0.00 in0.0 mm 0.00 in0.0 mm 0.00 in0.0 mm
03:49 PM 76.6°F24.8°C 56.6°F13.7°C 50% 7.8 mph N12.6 kmh N 11.4 mph18.3 kmh 30.11 in1019.6 mb 0.00 in0.0 mm 0.00 in0.0 mm 0.00 in0.0 mm
03:44 PM 76.3°F24.6°C 56.8°F13.8°C 51% 10.9 mph N17.5 kmh N 13.6 mph21.9 kmh 30.11 in1019.6 mb 0.00 in0.0 mm 0.00 in0.0 mm 0.00 in0.0 mm
03:39 PM 76.1°F24.5°C 56.1°F13.4°C 50% 12.4 mph NNW20.0 kmh NNW 13.6 mph21.9 kmh 30.10 in1019.3 mb 0.00 in0.0 mm 0.00 in0.0 mm 0.00 in0.0 mm
03:34 PM 76.3°F24.6°C 56.8°F13.8°C 51% 14.4 mph NNW23.2 kmh NNW 17.4 mph28.0 kmh 30.10 in1019.3 mb 0.00 in0.0 mm 0.00 in0.0 mm 0.00 in0.0 mm
03:29 PM 76.3°F24.6°C 56.8°F13.8°C 51% 16.9 mph NNW27.2 kmh NNW 21.3 mph34.3 kmh 30.09 in1019.0 mb 0.00 in0.0 mm 0.00 in0.0 mm 0.00 in0.0 mm
03:24 PM 76.8°F24.9°C 56.2°F13.4°C 49% 21.2 mph NNW34.1 kmh NNW 24.9 mph40.1 kmh 30.09 in1019.0 mb 0.00 in0.0 mm 0.00 in0.0 mm 0.00 in0.0 mm
03:19 PM 77.5°F25.3°C 56.3°F13.5°C 48% 21.2 mph NNW34.1 kmh NNW 24.9 mph40.1 kmh 30.09 in1019.0 mb 0.00 in0.0 mm 0.00 in0.0 mm 0.00 in0.0 mm
03:15 PM 78.3°F25.7°C 55.8°F13.2°C 46% 17.6 mph NW28.3 kmh NW 25.1 mph40.4 kmh 30.09 in1019.0 mb 0.00 in0.0 mm 0.00 in0.0 mm 0.00 in0.0 mm
03:00 PM 78.8°F26.0°C 56.9°F13.8°C 47% 16.7 mph NNW26.9 kmh NNW 24.4 mph39.3 kmh 30.08 in1018.6 mb 0.00 in0.0 mm 0.00 in0.0 mm 0.00 in0.0 mm
02:49 PM 79.0°F26.1°C 57.6°F14.2°C 48% 19.8 mph NW31.9 kmh NW 21.3 mph34.3 kmh 30.08 in1018.6 mb 0.00 in0.0 mm 0.00 in0.0 mm 0.00 in0.0 mm
02:44 PM 79.9°F26.6°C 59.6°F15.3°C 50% 20.5 mph NW33.0 kmh NW 23.5 mph37.8 kmh 30.08 in1018.6 mb 0.00 in0.0 mm 0.00 in0.0 mm 0.00 in0.0 mm
02:39 PM 81.9°F27.7°C 58.4°F14.7°C 45% 20.5 mph NW33.0 kmh NW 23.5 mph37.8 kmh 30.07 in1018.3 mb 0.00 in0.0 mm 0.00 in0.0 mm 0.00 in0.0 mm
02:34 PM 83.1°F28.4°C 58.3°F14.6°C 43% 17.4 mph NW28.0 kmh NW 23.5 mph37.8 kmh 30.07 in1018.3 mb 0.00 in0.0 mm 0.00 in0.0 mm 0.00 in0.0 mm
02:29 PM 82.9°F28.3°C 57.5°F14.2°C 42% 13.6 mph NW21.9 kmh NW 16.8 mph27.0 kmh 30.07 in1018.3 mb 0.00 in0.0 mm 0.00 in0.0 mm 0.00 in0.0 mm
02:24 PM 83.5°F28.6°C 58.0°F14.4°C 42% 10.6 mph NNW17.1 kmh NNW 12.1 mph19.5 kmh 30.07 in1018.3 mb 0.00 in0.0 mm 0.00 in0.0 mm 0.00 in0.0 mm
02:19 PM 83.8°F28.8°C 57.6°F14.2°C 41% 9.8 mph N15.8 kmh N 12.1 mph19.5 kmh 30.07 in1018.3 mb 0.00 in0.0 mm 0.00 in0.0 mm 0.00 in0.0 mm
02:14 PM 84.6°F29.2°C 58.3°F14.6°C 41% 11.1 mph NW17.9 kmh NW 15.9 mph25.6 kmh 30.07 in1018.3 mb 0.00 in0.0 mm 0.00 in0.0 mm 0.00 in0.0 mm
02:09 PM 84.9°F29.4°C 58.6°F14.8°C 41% 10.4 mph NNW16.7 kmh NNW 15.9 mph25.6 kmh 30.07 in1018.3 mb 0.00 in0.0 mm 0.00 in0.0 mm 0.00 in0.0 mm
02:04 PM 87.4°F30.8°C 58.7°F14.8°C 38% 8.9 mph NNW14.3 kmh NNW 15.9 mph25.6 kmh 30.07 in1018.3 mb 0.00 in0.0 mm 0.00 in0.0 mm 0.00 in0.0 mm
01:59 PM 87.8°F31.0°C 58.3°F14.6°C 37% 5.5 mph N8.9 kmh N 5.6 mph9.0 kmh 30.07 in1018.3 mb 0.00 in0.0 mm 0.00 in0.0 mm 0.00 in0.0 mm
01:45 PM 85.6°F29.8°C 60.0°F15.6°C 42% 5.4 mph NNW8.7 kmh NNW 9.2 mph14.8 kmh 30.07 in1018.3 mb 0.00 in0.0 mm 0.00 in0.0 mm 0.00 in0.0 mm
01:30 PM 84.6°F29.2°C 60.3°F15.7°C 44% 7.7 mph N12.4 kmh N 10.7 mph17.2 kmh 30.07 in1018.3 mb 0.00 in0.0 mm 0.00 in0.0 mm 0.00 in0.0 mm
01:15 PM 85.6°F29.8°C 60.6°F15.9°C 43% 7.3 mph N11.7 kmh N 9.8 mph15.8 kmh 30.07 in1018.3 mb 0.00 in0.0 mm 0.00 in0.0 mm 0.00 in0.0 mm
01:08 PM 84.6°F29.2°C 62.1°F16.7°C 47% 7.0 mph NNW11.3 kmh NNW 8.3 mph13.4 kmh 30.07 in1018.3 mb 0.00 in0.0 mm 0.00 in0.0 mm 0.00 in0.0 mm
01:03 PM 84.6°F29.2°C 62.1°F16.7°C 47% 7.3 mph N11.7 kmh N 9.2 mph14.8 kmh 30.07 in1018.3 mb 0.00 in0.0 mm 0.00 in0.0 mm 0.00 in0.0 mm
12:58 PM 83.8°F28.8°C 62.1°F16.7°C 48% 6.9 mph N11.1 kmh N 9.2 mph14.8 kmh 30.07 in1018.3 mb 0.00 in0.0 mm 0.00 in0.0 mm 0.00 in0.0 mm
12:53 PM 82.9°F28.3°C 63.0°F17.2°C 51% 7.9 mph N12.7 kmh N 9.2 mph14.8 kmh 30.07 in1018.3 mb 0.00 in0.0 mm 0.00 in0.0 mm 0.00 in0.0 mm
12:48 PM 82.6°F28.1°C 62.1°F16.7°C 50% 7.4 mph N11.9 kmh N 7.6 mph12.2 kmh 30.08 in1018.6 mb 0.00 in0.0 mm 0.00 in0.0 mm 0.00 in0.0 mm
12:43 PM 81.9°F27.7°C 62.5°F16.9°C 52% 7.6 mph N12.2 kmh N 7.6 mph12.2 kmh 30.08 in1018.6 mb 0.00 in0.0 mm 0.00 in0.0 mm 0.00 in0.0 mm
12:38 PM 82.6°F28.1°C 63.2°F17.3°C 52% 8.6 mph N13.8 kmh N 10.7 mph17.2 kmh 30.08 in1018.6 mb 0.00 in0.0 mm 0.00 in0.0 mm 0.00 in0.0 mm
12:33 PM 82.9°F28.3°C 63.0°F17.2°C 51% 8.6 mph NNW13.8 kmh NNW 10.7 mph17.2 kmh 30.08 in1018.6 mb 0.00 in0.0 mm 0.00 in0.0 mm 0.00 in0.0 mm
12:28 PM 83.8°F28.8°C 62.6°F17.0°C 49% 9.4 mph N15.1 kmh N 10.7 mph17.2 kmh 30.08 in1018.6 mb 0.00 in0.0 mm 0.00 in0.0 mm 0.00 in0.0 mm
12:23 PM 82.2°F27.9°C 63.4°F17.4°C 53% 8.1 mph N13.0 kmh N 9.8 mph15.8 kmh 30.08 in1018.6 mb 0.00 in0.0 mm 0.00 in0.0 mm 0.00 in0.0 mm
12:18 PM 82.4°F28.0°C 63.5°F17.5°C 53% 8.4 mph N13.5 kmh N 9.8 mph15.8 kmh 30.08 in1018.6 mb 0.00 in0.0 mm 0.00 in0.0 mm 0.00 in0.0 mm
12:13 PM 81.0°F27.2°C 63.8°F17.7°C 56% 6.9 mph N11.1 kmh N 8.3 mph13.4 kmh 30.08 in1018.6 mb 0.00 in0.0 mm 0.00 in0.0 mm 0.00 in0.0 mm
12:08 PM 80.4°F26.9°C 63.3°F17.4°C 56% 7.7 mph N12.4 kmh N 9.3 mph15.0 kmh 30.08 in1018.6 mb 0.00 in0.0 mm 0.00 in0.0 mm 0.00 in0.0 mm
12:00 PM 81.1°F27.3°C 63.5°F17.5°C 55% 8.5 mph N13.7 kmh N 10.7 mph17.2 kmh 30.09 in1019.0 mb 0.00 in0.0 mm 0.00 in0.0 mm 0.00 in0.0 mm
11:45 AM 85.5°F29.7°C 63.6°F17.6°C 48% 4.5 mph E7.2 kmh E 6.9 mph11.1 kmh 30.08 in1018.6 mb 0.00 in0.0 mm 0.00 in0.0 mm 0.00 in0.0 mm
11:30 AM 81.0°F27.2°C 63.3°F17.4°C 55% 4.8 mph E7.7 kmh E 8.3 mph13.4 kmh 30.08 in1018.6 mb 0.00 in0.0 mm 0.00 in0.0 mm 0.00 in0.0 mm
11:15 AM 82.2°F27.9°C 62.9°F17.2°C 52% 3.9 mph E6.3 kmh E 5.4 mph8.7 kmh 30.08 in1018.6 mb 0.00 in0.0 mm 0.00 in0.0 mm 0.00 in0.0 mm
11:00 AM 85.8°F29.9°C 62.1°F16.7°C 45% 5.2 mph ESE8.4 kmh ESE 8.3 mph13.4 kmh 30.08 in1018.6 mb 0.00 in0.0 mm 0.00 in0.0 mm 0.00 in0.0 mm
10:45 AM 84.6°F29.2°C 64.5°F18.1°C 51% 3.8 mph SE6.1 kmh SE 6.9 mph11.1 kmh 30.07 in1018.3 mb 0.00 in0.0 mm 0.00 in0.0 mm 0.00 in0.0 mm
10:30 AM 82.0°F27.8°C 64.3°F17.9°C 55% 5.0 mph SE8.0 kmh SE 7.6 mph12.2 kmh 30.07 in1018.3 mb 0.00 in0.0 mm 0.00 in0.0 mm 0.00 in0.0 mm
10:15 AM 82.4°F28.0°C 65.7°F18.7°C 57% 3.7 mph SE6.0 kmh SE 6.9 mph11.1 kmh 30.07 in1018.3 mb 0.00 in0.0 mm 0.00 in0.0 mm 0.00 in0.0 mm
10:03 AM 81.0°F27.2°C 66.2°F19.0°C 61% 3.3 mph SE5.3 kmh SE 4.5 mph7.2 kmh 30.07 in1018.3 mb 0.00 in0.0 mm 0.00 in0.0 mm 0.00 in0.0 mm
09:58 AM 81.0°F27.2°C 66.2°F19.0°C 61% 3.5 mph SE5.6 kmh SE 4.5 mph7.2 kmh 30.07 in1018.3 mb 0.00 in0.0 mm 0.00 in0.0 mm 0.00 in0.0 mm
09:53 AM 81.0°F27.2°C 66.7°F19.3°C 62% 3.1 mph SE5.0 kmh SE 3.8 mph6.1 kmh 30.06 in1017.9 mb 0.00 in0.0 mm 0.00 in0.0 mm 0.00 in0.0 mm
09:48 AM 80.6°F27.0°C 66.4°F19.1°C 62% 3.4 mph SE5.5 kmh SE 3.8 mph6.1 kmh 30.07 in1018.3 mb 0.00 in0.0 mm 0.00 in0.0 mm 0.00 in0.0 mm
09:43 AM 79.3°F26.3°C 67.4°F19.7°C 67% 3.9 mph SE6.3 kmh SE 5.4 mph8.7 kmh 30.06 in1017.9 mb 0.00 in0.0 mm 0.00 in0.0 mm 0.00 in0.0 mm
09:38 AM 78.8°F26.0°C 66.9°F19.4°C 67% 4.1 mph SE6.6 kmh SE 5.4 mph8.7 kmh 30.06 in1017.9 mb 0.00 in0.0 mm 0.00 in0.0 mm 0.00 in0.0 mm
09:33 AM 78.1°F25.6°C 67.9°F19.9°C 71% 4.8 mph SE7.7 kmh SE 5.4 mph8.7 kmh 30.06 in1017.9 mb 0.00 in0.0 mm 0.00 in0.0 mm 0.00 in0.0 mm
09:28 AM 76.3°F24.6°C 68.2°F20.1°C 76% 4.1 mph SE6.6 kmh SE 5.4 mph8.7 kmh 30.06 in1017.9 mb 0.00 in0.0 mm 0.00 in0.0 mm 0.00 in0.0 mm
09:23 AM 74.5°F23.6°C 67.5°F19.7°C 79% 3.4 mph SE5.5 kmh SE 5.4 mph8.7 kmh 30.06 in1017.9 mb 0.00 in0.0 mm 0.00 in0.0 mm 0.00 in0.0 mm
09:18 AM 74.3°F23.5°C 67.7°F19.8°C 80% 2.6 mph SE4.2 kmh SE 3.1 mph5.0 kmh 30.06 in1017.9 mb 0.00 in0.0 mm 0.00 in0.0 mm 0.00 in0.0 mm
09:13 AM 73.9°F23.3°C 68.1°F20.1°C 82% 2.1 mph SE3.4 kmh SE 3.1 mph5.0 kmh 30.06 in1017.9 mb 0.00 in0.0 mm 0.00 in0.0 mm 0.00 in0.0 mm
09:08 AM 73.6°F23.1°C 67.7°F19.8°C 82% 2.8 mph SE4.5 kmh SE 3.8 mph6.1 kmh 30.06 in1017.9 mb 0.00 in0.0 mm 0.00 in0.0 mm 0.00 in0.0 mm
09:03 AM 72.9°F22.7°C 67.4°F19.7°C 83% 2.5 mph SE4.0 kmh SE 3.8 mph6.1 kmh 30.06 in1017.9 mb 0.00 in0.0 mm 0.00 in0.0 mm 0.00 in0.0 mm
08:58 AM 72.7°F22.6°C 66.9°F19.4°C 82% 3.1 mph SE5.0 kmh SE 3.8 mph6.1 kmh 30.06 in1017.9 mb 0.00 in0.0 mm 0.00 in0.0 mm 0.00 in0.0 mm
08:53 AM 72.1°F22.3°C 66.7°F19.3°C 83% 3.3 mph SE5.3 kmh SE 4.5 mph7.2 kmh 30.05 in1017.6 mb 0.00 in0.0 mm 0.00 in0.0 mm 0.00 in0.0 mm
08:48 AM 72.0°F22.2°C 66.5°F19.2°C 83% 3.3 mph SE5.3 kmh SE 4.5 mph7.2 kmh 30.05 in1017.6 mb 0.00 in0.0 mm 0.00 in0.0 mm 0.00 in0.0 mm
08:43 AM 71.8°F22.1°C 66.0°F18.9°C 82% 3.0 mph SE4.8 kmh SE 4.5 mph7.2 kmh 30.05 in1017.6 mb 0.00 in0.0 mm 0.00 in0.0 mm 0.00 in0.0 mm
08:38 AM 71.8°F22.1°C 66.0°F18.9°C 82% 2.8 mph SE4.5 kmh SE 3.8 mph6.1 kmh 30.05 in1017.6 mb 0.00 in0.0 mm 0.00 in0.0 mm 0.00 in0.0 mm
08:33 AM 71.6°F22.0°C 65.8°F18.8°C 82% 2.8 mph SE4.5 kmh SE 3.8 mph6.1 kmh 30.05 in1017.6 mb 0.00 in0.0 mm 0.00 in0.0 mm 0.00 in0.0 mm
08:28 AM 71.6°F22.0°C 65.8°F18.8°C 82% 3.3 mph SE5.3 kmh SE 3.8 mph6.1 kmh 30.04 in1017.3 mb 0.00 in0.0 mm 0.00 in0.0 mm 0.00 in0.0 mm
08:23 AM 71.8°F22.1°C 66.0°F18.9°C 82% 2.8 mph SE4.5 kmh SE 3.8 mph6.1 kmh 30.04 in1017.3 mb 0.00 in0.0 mm 0.00 in0.0 mm 0.00 in0.0 mm
08:18 AM 71.6°F22.0°C 66.2°F19.0°C 83% 3.1 mph SE5.0 kmh SE 3.8 mph6.1 kmh 30.04 in1017.3 mb 0.00 in0.0 mm 0.00 in0.0 mm 0.00 in0.0 mm
08:13 AM 70.9°F21.6°C 66.1°F18.9°C 85% 2.3 mph SE3.7 kmh SE 3.1 mph5.0 kmh 30.03 in1016.9 mb 0.00 in0.0 mm 0.00 in0.0 mm 0.00 in0.0 mm
08:08 AM 70.5°F21.4°C 66.1°F18.9°C 86% 2.6 mph SE4.2 kmh SE 3.1 mph5.0 kmh 30.03 in1016.9 mb 0.00 in0.0 mm 0.00 in0.0 mm 0.00 in0.0 mm
08:03 AM 70.2°F21.2°C 65.8°F18.8°C 86% 2.8 mph SE4.5 kmh SE 3.8 mph6.1 kmh 30.03 in1016.9 mb 0.00 in0.0 mm 0.00 in0.0 mm 0.00 in0.0 mm
07:58 AM 70.2°F21.2°C 65.8°F18.8°C 86% 2.5 mph SE4.0 kmh SE 3.8 mph6.1 kmh 30.02 in1016.6 mb 0.00 in0.0 mm 0.00 in0.0 mm 0.00 in0.0 mm
07:53 AM 70.3°F21.3°C 66.3°F19.1°C 87% 1.7 mph SE2.7 kmh SE 3.8 mph6.1 kmh 30.02 in1016.6 mb 0.00 in0.0 mm 0.00 in0.0 mm 0.00 in0.0 mm
07:48 AM 70.0°F21.1°C 66.3°F19.1°C 88% 1.0 mph SE1.6 kmh SE 1.6 mph2.6 kmh 30.02 in1016.6 mb 0.00 in0.0 mm 0.00 in0.0 mm 0.00 in0.0 mm
07:43 AM 69.6°F20.9°C 65.9°F18.8°C 88% 1.8 mph SE2.9 kmh SE 3.1 mph5.0 kmh 30.02 in1016.6 mb 0.00 in0.0 mm 0.00 in0.0 mm 0.00 in0.0 mm
07:38 AM 69.6°F20.9°C 66.2°F19.0°C 89% 2.1 mph SE3.4 kmh SE 3.1 mph5.0 kmh 30.02 in1016.6 mb 0.00 in0.0 mm 0.00 in0.0 mm 0.00 in0.0 mm
07:33 AM 69.4°F20.8°C 66.1°F18.9°C 89% 2.1 mph SE3.4 kmh SE 3.1 mph5.0 kmh 30.02 in1016.6 mb 0.00 in0.0 mm 0.00 in0.0 mm 0.00 in0.0 mm
07:28 AM 69.3°F20.7°C 66.2°F19.0°C 90% 1.6 mph SE2.6 kmh SE 1.6 mph2.6 kmh 30.02 in1016.6 mb 0.00 in0.0 mm 0.00 in0.0 mm 0.00 in0.0 mm
07:23 AM 69.1°F20.6°C 66.3°F19.1°C 91% 1.3 mph SE2.1 kmh SE 1.6 mph2.6 kmh 30.02 in1016.6 mb 0.00 in0.0 mm 0.00 in0.0 mm 0.00 in0.0 mm
07:18 AM 68.9°F20.5°C 66.2°F19.0°C 91% 0.7 mph SE1.1 kmh SE 1.6 mph2.6 kmh 30.02 in1016.6 mb 0.00 in0.0 mm 0.00 in0.0 mm 0.00 in0.0 mm
07:13 AM 68.5°F20.3°C 65.8°F18.8°C 91% 0.2 mph SE0.3 kmh SE 0.7 mph1.1 kmh 30.02 in1016.6 mb 0.00 in0.0 mm 0.00 in0.0 mm 0.00 in0.0 mm
07:08 AM 68.2°F20.1°C 65.5°F18.6°C 91% 0.2 mph SE0.3 kmh SE 0.7 mph1.1 kmh 30.02 in1016.6 mb 0.00 in0.0 mm 0.00 in0.0 mm 0.00 in0.0 mm
07:03 AM 68.0°F20.0°C 65.3°F18.5°C 91% 1.0 mph SE1.6 kmh SE 2.2 mph3.5 kmh 30.02 in1016.6 mb 0.00 in0.0 mm 0.00 in0.0 mm 0.00 in0.0 mm
06:58 AM 68.2°F20.1°C 65.1°F18.4°C 90% 2.0 mph SE3.2 kmh SE 3.1 mph5.0 kmh 30.02 in1016.6 mb 0.00 in0.0 mm 0.00 in0.0 mm 0.00 in0.0 mm
06:53 AM 68.4°F20.2°C 65.6°F18.7°C 91% 1.8 mph SE2.9 kmh SE 3.1 mph5.0 kmh 30.02 in1016.6 mb 0.00 in0.0 mm 0.00 in0.0 mm 0.00 in0.0 mm
06:48 AM 68.7°F20.4°C 66.3°F19.1°C 92% 1.8 mph SE2.9 kmh SE 3.1 mph5.0 kmh 30.02 in1016.6 mb 0.00 in0.0 mm 0.00 in0.0 mm 0.00 in0.0 mm
06:43 AM 68.5°F20.3°C 66.1°F18.9°C 92% 1.3 mph SE2.1 kmh SE 2.2 mph3.5 kmh 30.02 in1016.6 mb 0.00 in0.0 mm 0.00 in0.0 mm 0.00 in0.0 mm
06:38 AM 68.0°F20.0°C 65.6°F18.7°C 92% 1.5 mph SE2.4 kmh SE 2.2 mph3.5 kmh 30.01 in1016.3 mb 0.00 in0.0 mm 0.00 in0.0 mm 0.00 in0.0 mm
06:33 AM 67.6°F19.8°C 65.2°F18.4°C 92% 1.3 mph SE2.1 kmh SE 1.6 mph2.6 kmh 30.01 in1016.3 mb 0.00 in0.0 mm 0.00 in0.0 mm 0.00 in0.0 mm
06:28 AM 67.6°F19.8°C 65.2°F18.4°C 92% 1.5 mph SE2.4 kmh SE 2.2 mph3.5 kmh 30.01 in1016.3 mb 0.00 in0.0 mm 0.00 in0.0 mm 0.00 in0.0 mm
06:23 AM 67.6°F19.8°C 65.2°F18.4°C 92% 2.0 mph SE3.2 kmh SE 2.2 mph3.5 kmh 30.01 in1016.3 mb 0.00 in0.0 mm 0.00 in0.0 mm 0.00 in0.0 mm
06:18 AM 68.0°F20.0°C 65.6°F18.7°C 92% 3.0 mph SE4.8 kmh SE 4.5 mph7.2 kmh 30.01 in1016.3 mb 0.00 in0.0 mm 0.00 in0.0 mm 0.00 in0.0 mm
06:13 AM 68.0°F20.0°C 65.6°F18.7°C 92% 3.7 mph SE6.0 kmh SE 4.5 mph7.2 kmh 30.01 in1016.3 mb 0.00 in0.0 mm 0.00 in0.0 mm 0.00 in0.0 mm
06:08 AM 68.0°F20.0°C 65.9°F18.8°C 93% 4.8 mph SE7.7 kmh SE 5.4 mph8.7 kmh 30.01 in1016.3 mb 0.00 in0.0 mm 0.00 in0.0 mm 0.00 in0.0 mm
06:03 AM 67.6°F19.8°C 65.5°F18.6°C 93% 4.5 mph SE7.2 kmh SE 5.4 mph8.7 kmh 30.01 in1016.3 mb 0.00 in0.0 mm 0.00 in0.0 mm 0.00 in0.0 mm
05:58 AM 67.5°F19.7°C 65.4°F18.6°C 93% 4.3 mph SE6.9 kmh SE 5.4 mph8.7 kmh 30.00 in1015.9 mb 0.00 in0.0 mm 0.00 in0.0 mm 0.00 in0.0 mm
05:53 AM 67.1°F19.5°C 65.3°F18.5°C 94% 3.3 mph SE5.3 kmh SE 3.8 mph6.1 kmh 30.01 in1016.3 mb 0.00 in0.0 mm 0.00 in0.0 mm 0.00 in0.0 mm
05:48 AM 66.6°F19.2°C 64.5°F18.1°C 93% 2.5 mph SE4.0 kmh SE 3.8 mph6.1 kmh 30.01 in1016.3 mb 0.00 in0.0 mm 0.00 in0.0 mm 0.00 in0.0 mm
05:43 AM 66.2°F19.0°C 64.1°F17.8°C 93% 2.0 mph SE3.2 kmh SE 2.2 mph3.5 kmh 30.01 in1016.3 mb 0.00 in0.0 mm 0.00 in0.0 mm 0.00 in0.0 mm
05:38 AM 66.4°F19.1°C 64.0°F17.8°C 92% 1.8 mph SE2.9 kmh SE 2.2 mph3.5 kmh 30.01 in1016.3 mb 0.00 in0.0 mm 0.00 in0.0 mm 0.00 in0.0 mm
05:33 AM 66.4°F19.1°C 64.0°F17.8°C 92% 1.5 mph SE2.4 kmh SE 2.2 mph3.5 kmh 30.01 in1016.3 mb 0.00 in0.0 mm 0.00 in0.0 mm 0.00 in0.0 mm
05:28 AM 66.7°F19.3°C 64.0°F17.8°C 91% 1.5 mph SE2.4 kmh SE 2.2 mph3.5 kmh 30.01 in1016.3 mb 0.00 in0.0 mm 0.00 in0.0 mm 0.00 in0.0 mm
05:23 AM 67.1°F19.5°C 64.4°F18.0°C 91% 2.0 mph SE3.2 kmh SE 3.1 mph5.0 kmh 30.01 in1016.3 mb 0.00 in0.0 mm 0.00 in0.0 mm 0.00 in0.0 mm
05:18 AM 67.3°F19.6°C 64.6°F18.1°C 91% 2.5 mph SE4.0 kmh SE 3.1 mph5.0 kmh 30.01 in1016.3 mb 0.00 in0.0 mm 0.00 in0.0 mm 0.00 in0.0 mm
05:13 AM 67.3°F19.6°C 64.9°F18.3°C 92% 2.8 mph SE4.5 kmh SE 3.1 mph5.0 kmh 30.02 in1016.6 mb 0.00 in0.0 mm 0.00 in0.0 mm 0.00 in0.0 mm
05:08 AM 67.5°F19.7°C 64.7°F18.2°C 91% 2.8 mph SE4.5 kmh SE 3.1 mph5.0 kmh 30.01 in1016.3 mb 0.00 in0.0 mm 0.00 in0.0 mm 0.00 in0.0 mm
05:03 AM 67.3°F19.6°C 64.9°F18.3°C 92% 2.8 mph SE4.5 kmh SE 3.1 mph5.0 kmh 30.01 in1016.3 mb 0.00 in0.0 mm 0.00 in0.0 mm 0.00 in0.0 mm
04:58 AM 67.1°F19.5°C 64.7°F18.2°C 92% 2.3 mph SE3.7 kmh SE 3.1 mph5.0 kmh 30.02 in1016.6 mb 0.00 in0.0 mm 0.00 in0.0 mm 0.00 in0.0 mm
04:53 AM 66.9°F19.4°C 64.5°F18.1°C 92% 1.8 mph SE2.9 kmh SE 2.2 mph3.5 kmh 30.02 in1016.6 mb 0.00 in0.0 mm 0.00 in0.0 mm 0.00 in0.0 mm
04:48 AM 66.7°F19.3°C 64.3°F17.9°C 92% 1.3 mph SE2.1 kmh SE 1.6 mph2.6 kmh 30.02 in1016.6 mb 0.00 in0.0 mm 0.00 in0.0 mm 0.00 in0.0 mm
04:43 AM 66.9°F19.4°C 64.5°F18.1°C 92% 1.5 mph SE2.4 kmh SE 2.2 mph3.5 kmh 30.02 in1016.6 mb 0.00 in0.0 mm 0.00 in0.0 mm 0.00 in0.0 mm
04:38 AM 67.1°F19.5°C 64.7°F18.2°C 92% 1.7 mph SE2.7 kmh SE 2.2 mph3.5 kmh 30.02 in1016.6 mb 0.00 in0.0 mm 0.00 in0.0 mm 0.00 in0.0 mm
04:33 AM 67.3°F19.6°C 65.2°F18.4°C 93% 2.8 mph SE4.5 kmh SE 3.8 mph6.1 kmh 30.02 in1016.6 mb 0.00 in0.0 mm 0.00 in0.0 mm 0.00 in0.0 mm
04:28 AM 67.3°F19.6°C 65.5°F18.6°C 94% 2.8 mph SE4.5 kmh SE 3.8 mph6.1 kmh 30.02 in1016.6 mb 0.00 in0.0 mm 0.00 in0.0 mm 0.00 in0.0 mm
04:23 AM 66.7°F19.3°C 65.0°F18.3°C 94% 2.8 mph SE4.5 kmh SE 3.8 mph6.1 kmh 30.02 in1016.6 mb 0.00 in0.0 mm 0.00 in0.0 mm 0.00 in0.0 mm
04:18 AM 66.6°F19.2°C 65.1°F18.4°C 95% 2.2 mph SE3.5 kmh SE 2.2 mph3.5 kmh 30.02 in1016.6 mb 0.00 in0.0 mm 0.00 in0.0 mm 0.00 in0.0 mm
04:13 AM 66.2°F19.0°C 64.7°F18.2°C 95% 2.0 mph SE3.2 kmh SE 2.2 mph3.5 kmh 30.02 in1016.6 mb 0.00 in0.0 mm 0.00 in0.0 mm 0.00 in0.0 mm
04:08 AM 66.0°F18.9°C 64.2°F17.9°C 94% 2.3 mph SE3.7 kmh SE 3.1 mph5.0 kmh 30.02 in1016.6 mb 0.00 in0.0 mm 0.00 in0.0 mm 0.00 in0.0 mm
04:03 AM 65.8°F18.8°C 64.1°F17.8°C 94% 2.3 mph SE3.7 kmh SE 3.1 mph5.0 kmh 30.02 in1016.6 mb 0.00 in0.0 mm 0.00 in0.0 mm 0.00 in0.0 mm
03:58 AM 66.0°F18.9°C 63.9°F17.7°C 93% 3.1 mph SE5.0 kmh SE 3.8 mph6.1 kmh 30.02 in1016.6 mb 0.00 in0.0 mm 0.00 in0.0 mm 0.00 in0.0 mm
03:53 AM 66.2°F19.0°C 63.8°F17.7°C 92% 3.1 mph SE5.0 kmh SE 3.8 mph6.1 kmh 30.02 in1016.6 mb 0.00 in0.0 mm 0.00 in0.0 mm 0.00 in0.0 mm
03:48 AM 66.7°F19.3°C 64.7°F18.2°C 93% 3.4 mph SE5.5 kmh SE 3.8 mph6.1 kmh 30.02 in1016.6 mb 0.00 in0.0 mm 0.00 in0.0 mm 0.00 in0.0 mm
03:43 AM 66.6°F19.2°C 64.5°F18.1°C 93% 3.1 mph SE5.0 kmh SE 3.1 mph5.0 kmh 30.01 in1016.3 mb 0.00 in0.0 mm 0.00 in0.0 mm 0.00 in0.0 mm
03:38 AM 66.6°F19.2°C 64.5°F18.1°C 93% 3.1 mph SE5.0 kmh SE 3.1 mph5.0 kmh 30.02 in1016.6 mb 0.00 in0.0 mm 0.00 in0.0 mm 0.00 in0.0 mm
03:33 AM 66.4°F19.1°C 64.0°F17.8°C 92% 3.4 mph SE5.5 kmh SE 3.8 mph6.1 kmh 30.01 in1016.3 mb 0.00 in0.0 mm 0.00 in0.0 mm 0.00 in0.0 mm
03:28 AM 66.4°F19.1°C 64.0°F17.8°C 92% 2.8 mph SE4.5 kmh SE 3.8 mph6.1 kmh 30.02 in1016.6 mb 0.00 in0.0 mm 0.00 in0.0 mm 0.00 in0.0 mm
03:23 AM 66.6°F19.2°C 64.2°F17.9°C 92% 2.5 mph SE4.0 kmh SE 3.8 mph6.1 kmh 30.02 in1016.6 mb 0.00 in0.0 mm 0.00 in0.0 mm 0.00 in0.0 mm
03:18 AM 66.7°F19.3°C 64.3°F17.9°C 92% 2.0 mph SE3.2 kmh SE 2.2 mph3.5 kmh 30.02 in1016.6 mb 0.00 in0.0 mm 0.00 in0.0 mm 0.00 in0.0 mm
03:13 AM 66.9°F19.4°C 64.5°F18.1°C 92% 1.7 mph SE2.7 kmh SE 2.2 mph3.5 kmh 30.02 in1016.6 mb 0.00 in0.0 mm 0.00 in0.0 mm 0.00 in0.0 mm
03:08 AM 67.1°F19.5°C 64.7°F18.2°C 92% 1.7 mph SE2.7 kmh SE 2.2 mph3.5 kmh 30.02 in1016.6 mb 0.00 in0.0 mm 0.00 in0.0 mm 0.00 in0.0 mm
03:03 AM 67.1°F19.5°C 64.7°F18.2°C 92% 1.7 mph SE2.7 kmh SE 2.2 mph3.5 kmh 30.03 in1016.9 mb 0.00 in0.0 mm 0.00 in0.0 mm 0.00 in0.0 mm
02:58 AM 67.1°F19.5°C 64.4°F18.0°C 91% 2.5 mph SE4.0 kmh SE 3.1 mph5.0 kmh 30.02 in1016.6 mb 0.00 in0.0 mm 0.00 in0.0 mm 0.00 in0.0 mm
02:53 AM 67.3°F19.6°C 64.9°F18.3°C 92% 3.6 mph SE5.8 kmh SE 5.4 mph8.7 kmh 30.02 in1016.6 mb 0.00 in0.0 mm 0.00 in0.0 mm 0.00 in0.0 mm
02:48 AM 67.3°F19.6°C 64.9°F18.3°C 92% 4.3 mph SE6.9 kmh SE 5.4 mph8.7 kmh 30.03 in1016.9 mb 0.00 in0.0 mm 0.00 in0.0 mm 0.00 in0.0 mm
02:43 AM 67.5°F19.7°C 64.7°F18.2°C 91% 4.5 mph SE7.2 kmh SE 5.4 mph8.7 kmh 30.03 in1016.9 mb 0.00 in0.0 mm 0.00 in0.0 mm 0.00 in0.0 mm
02:38 AM 67.5°F19.7°C 65.1°F18.4°C 92% 3.5 mph SE5.6 kmh SE 4.5 mph7.2 kmh 30.03 in1016.9 mb 0.00 in0.0 mm 0.00 in0.0 mm 0.00 in0.0 mm
02:33 AM 67.1°F19.5°C 65.0°F18.3°C 93% 3.1 mph SE5.0 kmh SE 3.8 mph6.1 kmh 30.03 in1016.9 mb 0.00 in0.0 mm 0.00 in0.0 mm 0.00 in0.0 mm
02:28 AM 66.9°F19.4°C 64.8°F18.2°C 93% 2.3 mph SE3.7 kmh SE 3.1 mph5.0 kmh 30.04 in1017.3 mb 0.00 in0.0 mm 0.00 in0.0 mm 0.00 in0.0 mm
02:23 AM 66.7°F19.3°C 64.7°F18.2°C 93% 2.6 mph SE4.2 kmh SE 3.1 mph5.0 kmh 30.04 in1017.3 mb 0.00 in0.0 mm 0.00 in0.0 mm 0.00 in0.0 mm
02:18 AM 66.6°F19.2°C 64.5°F18.1°C 93% 2.6 mph SE4.2 kmh SE 3.1 mph5.0 kmh 30.04 in1017.3 mb 0.00 in0.0 mm 0.00 in0.0 mm 0.00 in0.0 mm
02:13 AM 66.6°F19.2°C 64.5°F18.1°C 93% 3.6 mph SE5.8 kmh SE 4.5 mph7.2 kmh 30.04 in1017.3 mb 0.00 in0.0 mm 0.00 in0.0 mm 0.00 in0.0 mm
02:08 AM 66.6°F19.2°C 64.5°F18.1°C 93% 4.0 mph SE6.4 kmh SE 4.5 mph7.2 kmh 30.04 in1017.3 mb 0.00 in0.0 mm 0.00 in0.0 mm 0.00 in0.0 mm
02:03 AM 66.6°F19.2°C 64.2°F17.9°C 92% 3.7 mph SE6.0 kmh SE 4.5 mph7.2 kmh 30.04 in1017.3 mb 0.00 in0.0 mm 0.00 in0.0 mm 0.00 in0.0 mm
01:58 AM 66.4°F19.1°C 64.0°F17.8°C 92% 3.3 mph SE5.3 kmh SE 4.5 mph7.2 kmh 30.04 in1017.3 mb 0.00 in0.0 mm 0.00 in0.0 mm 0.00 in0.0 mm
01:53 AM 66.6°F19.2°C 64.2°F17.9°C 92% 3.1 mph SE5.0 kmh SE 3.8 mph6.1 kmh 30.04 in1017.3 mb 0.00 in0.0 mm 0.00 in0.0 mm 0.00 in0.0 mm
01:48 AM 66.6°F19.2°C 64.2°F17.9°C 92% 3.6 mph SE5.8 kmh SE 3.8 mph6.1 kmh 30.04 in1017.3 mb 0.00 in0.0 mm 0.00 in0.0 mm 0.00 in0.0 mm
01:43 AM 66.6°F19.2°C 64.2°F17.9°C 92% 3.3 mph SE5.3 kmh SE 3.8 mph6.1 kmh 30.04 in1017.3 mb 0.00 in0.0 mm 0.00 in0.0 mm 0.00 in0.0 mm
01:38 AM 66.6°F19.2°C 64.5°F18.1°C 93% 3.1 mph SE5.0 kmh SE 3.8 mph6.1 kmh 30.05 in1017.6 mb 0.00 in0.0 mm 0.00 in0.0 mm 0.00 in0.0 mm
01:33 AM 66.6°F19.2°C 64.5°F18.1°C 93% 3.6 mph SE5.8 kmh SE 5.4 mph8.7 kmh 30.05 in1017.6 mb 0.00 in0.0 mm 0.00 in0.0 mm 0.00 in0.0 mm
01:28 AM 66.4°F19.1°C 64.3°F17.9°C 93% 4.3 mph SE6.9 kmh SE 5.4 mph8.7 kmh 30.05 in1017.6 mb 0.00 in0.0 mm 0.00 in0.0 mm 0.00 in0.0 mm
01:23 AM 66.2°F19.0°C 64.4°F18.0°C 94% 4.5 mph SE7.2 kmh SE 5.4 mph8.7 kmh 30.06 in1017.9 mb 0.00 in0.0 mm 0.00 in0.0 mm 0.00 in0.0 mm
01:18 AM 65.8°F18.8°C 63.8°F17.7°C 93% 3.5 mph SE5.6 kmh SE 4.5 mph7.2 kmh 30.06 in1017.9 mb 0.00 in0.0 mm 0.00 in0.0 mm 0.00 in0.0 mm
01:13 AM 65.5°F18.6°C 63.7°F17.6°C 94% 3.1 mph SE5.0 kmh SE 3.8 mph6.1 kmh 30.07 in1018.3 mb 0.00 in0.0 mm 0.00 in0.0 mm 0.00 in0.0 mm
01:08 AM 65.7°F18.7°C 63.3°F17.4°C 92% 2.8 mph SE4.5 kmh SE 3.1 mph5.0 kmh 30.07 in1018.3 mb 0.00 in0.0 mm 0.00 in0.0 mm 0.00 in0.0 mm
01:03 AM 66.2°F19.0°C 64.1°F17.8°C 93% 2.6 mph SE4.2 kmh SE 3.1 mph5.0 kmh 30.06 in1017.9 mb 0.00 in0.0 mm 0.00 in0.0 mm 0.00 in0.0 mm
12:58 AM 66.2°F19.0°C 64.1°F17.8°C 93% 2.6 mph SE4.2 kmh SE 3.1 mph5.0 kmh 30.06 in1017.9 mb 0.00 in0.0 mm 0.00 in0.0 mm 0.00 in0.0 mm
12:53 AM 66.0°F18.9°C 63.9°F17.7°C 93% 2.6 mph SE4.2 kmh SE 3.1 mph5.0 kmh 30.06 in1017.9 mb 0.00 in0.0 mm 0.00 in0.0 mm 0.00 in0.0 mm
12:48 AM 66.0°F18.9°C 63.9°F17.7°C 93% 3.1 mph SE5.0 kmh SE 3.1 mph5.0 kmh 30.06 in1017.9 mb 0.00 in0.0 mm 0.00 in0.0 mm 0.00 in0.0 mm
12:43 AM 66.2°F19.0°C 64.1°F17.8°C 93% 2.8 mph SE4.5 kmh SE 3.1 mph5.0 kmh 30.06 in1017.9 mb 0.00 in0.0 mm 0.00 in0.0 mm 0.00 in0.0 mm
12:38 AM 66.0°F18.9°C 63.9°F17.7°C 93% 2.3 mph SE3.7 kmh SE 3.1 mph5.0 kmh 30.06 in1017.9 mb 0.00 in0.0 mm 0.00 in0.0 mm 0.00 in0.0 mm
12:33 AM 65.8°F18.8°C 63.5°F17.5°C 92% 1.5 mph SE2.4 kmh SE 2.2 mph3.5 kmh 30.07 in1018.3 mb 0.00 in0.0 mm 0.00 in0.0 mm 0.00 in0.0 mm
12:28 AM 66.0°F18.9°C 63.6°F17.6°C 92% 1.5 mph SE2.4 kmh SE 2.2 mph3.5 kmh 30.07 in1018.3 mb 0.00 in0.0 mm 0.00 in0.0 mm 0.00 in0.0 mm
12:23 AM 66.0°F18.9°C 63.6°F17.6°C 92% 1.7 mph SE2.7 kmh SE 2.2 mph3.5 kmh 30.07 in1018.3 mb 0.00 in0.0 mm 0.00 in0.0 mm 0.00 in0.0 mm
12:18 AM 66.0°F18.9°C 63.6°F17.6°C 92% 2.2 mph SE3.5 kmh SE 2.2 mph3.5 kmh 30.07 in1018.3 mb 0.00 in0.0 mm 0.00 in0.0 mm 0.00 in0.0 mm
12:13 AM 66.2°F19.0°C 63.8°F17.7°C 92% 2.5 mph SSE4.0 kmh SSE 3.1 mph5.0 kmh 30.07 in1018.3 mb 0.00 in0.0 mm 0.00 in0.0 mm 0.00 in0.0 mm
12:08 AM 66.4°F19.1°C 64.0°F17.8°C 92% 3.1 mph SSE5.0 kmh SSE 3.8 mph6.1 kmh 30.07 in1018.3 mb 0.00 in0.0 mm 0.00 in0.0 mm 0.00 in0.0 mm
12:03 AM 66.6°F19.2°C 64.2°F17.9°C 92% 3.1 mph SSE5.0 kmh SSE 3.8 mph6.1 kmh 30.07 in1018.3 mb 0.00 in0.0 mm 0.00 in0.0 mm 0.00 in0.0 mm